sensor_id;sensor_type;location;lat;lon;timestamp;P1;durP1;ratioP1;P2;durP2;ratioP2
18168;SDS011;49877;50.398;30.324;2022-07-09T00:00:41;3.30;;;2.80;;
18168;SDS011;49877;50.398;30.324;2022-07-09T00:03:08;4.67;;;3.10;;
18168;SDS011;49877;50.398;30.324;2022-07-09T00:05:35;3.10;;;2.80;;
18168;SDS011;49877;50.398;30.324;2022-07-09T00:08:02;3.37;;;3.07;;
18168;SDS011;49877;50.398;30.324;2022-07-09T00:10:29;4.57;;;3.10;;
18168;SDS011;49877;50.398;30.324;2022-07-09T00:12:56;4.97;;;3.20;;
18168;SDS011;49877;50.398;30.324;2022-07-09T00:15:23;4.83;;;3.20;;
18168;SDS011;49877;50.398;30.324;2022-07-09T00:17:52;3.67;;;3.10;;
18168;SDS011;49877;50.398;30.324;2022-07-09T00:20:18;4.80;;;3.20;;
18168;SDS011;49877;50.398;30.324;2022-07-09T00:22:45;5.53;;;3.07;;
18168;SDS011;49877;50.398;30.324;2022-07-09T00:25:12;9.63;;;3.43;;
18168;SDS011;49877;50.398;30.324;2022-07-09T00:27:39;4.67;;;3.17;;
18168;SDS011;49877;50.398;30.324;2022-07-09T00:30:06;3.47;;;3.17;;
18168;SDS011;49877;50.398;30.324;2022-07-09T00:32:34;5.93;;;3.20;;
18168;SDS011;49877;50.398;30.324;2022-07-09T00:35:02;5.03;;;3.33;;
18168;SDS011;49877;50.398;30.324;2022-07-09T00:37:29;4.80;;;3.20;;
18168;SDS011;49877;50.398;30.324;2022-07-09T00:39:56;5.00;;;3.30;;
18168;SDS011;49877;50.398;30.324;2022-07-09T00:42:23;5.40;;;3.37;;
18168;SDS011;49877;50.398;30.324;2022-07-09T00:44:50;4.77;;;3.20;;
18168;SDS011;49877;50.398;30.324;2022-07-09T00:47:17;4.23;;;3.40;;
18168;SDS011;49877;50.398;30.324;2022-07-09T00:49:44;3.53;;;3.00;;
18168;SDS011;49877;50.398;30.324;2022-07-09T00:52:13;3.90;;;3.27;;
18168;SDS011;49877;50.398;30.324;2022-07-09T00:54:42;4.83;;;3.70;;
18168;SDS011;49877;50.398;30.324;2022-07-09T00:57:10;5.23;;;3.13;;
18168;SDS011;49877;50.398;30.324;2022-07-09T00:59:39;4.67;;;3.63;;
18168;SDS011;49877;50.398;30.324;2022-07-09T01:02:06;4.77;;;3.50;;
18168;SDS011;49877;50.398;30.324;2022-07-09T01:04:34;5.10;;;3.50;;
18168;SDS011;49877;50.398;30.324;2022-07-09T01:07:02;4.37;;;3.10;;
18168;SDS011;49877;50.398;30.324;2022-07-09T01:09:31;4.30;;;3.20;;
18168;SDS011;49877;50.398;30.324;2022-07-09T01:11:59;5.80;;;3.20;;
18168;SDS011;49877;50.398;30.324;2022-07-09T01:14:26;4.43;;;3.00;;
18168;SDS011;49877;50.398;30.324;2022-07-09T01:16:57;4.20;;;3.00;;
18168;SDS011;49877;50.398;30.324;2022-07-09T01:19:25;3.50;;;2.93;;
18168;SDS011;49877;50.398;30.324;2022-07-09T01:21:54;6.10;;;3.57;;
18168;SDS011;49877;50.398;30.324;2022-07-09T01:24:21;5.10;;;3.43;;
18168;SDS011;49877;50.398;30.324;2022-07-09T01:26:49;5.57;;;3.23;;
18168;SDS011;49877;50.398;30.324;2022-07-09T01:29:18;5.30;;;3.73;;
18168;SDS011;49877;50.398;30.324;2022-07-09T01:31:45;4.43;;;3.20;;
18168;SDS011;49877;50.398;30.324;2022-07-09T01:34:12;4.43;;;3.20;;
18168;SDS011;49877;50.398;30.324;2022-07-09T01:36:39;3.63;;;3.00;;
18168;SDS011;49877;50.398;30.324;2022-07-09T01:39:07;4.57;;;3.00;;
18168;SDS011;49877;50.398;30.324;2022-07-09T01:41:34;4.53;;;3.10;;
18168;SDS011;49877;50.398;30.324;2022-07-09T01:44:01;3.57;;;3.00;;
18168;SDS011;49877;50.398;30.324;2022-07-09T01:46:28;4.20;;;3.00;;
18168;SDS011;49877;50.398;30.324;2022-07-09T01:48:55;6.20;;;3.33;;
18168;SDS011;49877;50.398;30.324;2022-07-09T01:51:22;5.27;;;3.13;;
18168;SDS011;49877;50.398;30.324;2022-07-09T01:53:49;2.93;;;2.70;;
18168;SDS011;49877;50.398;30.324;2022-07-09T01:56:17;4.60;;;3.07;;
18168;SDS011;49877;50.398;30.324;2022-07-09T01:58:44;4.10;;;3.10;;
18168;SDS011;49877;50.398;30.324;2022-07-09T02:01:11;3.40;;;2.63;;
18168;SDS011;49877;50.398;30.324;2022-07-09T02:03:38;4.03;;;3.10;;
18168;SDS011;49877;50.398;30.324;2022-07-09T02:06:05;4.53;;;3.03;;
18168;SDS011;49877;50.398;30.324;2022-07-09T02:08:32;6.20;;;3.30;;
18168;SDS011;49877;50.398;30.324;2022-07-09T02:10:59;4.53;;;2.80;;
18168;SDS011;49877;50.398;30.324;2022-07-09T02:13:27;3.93;;;2.70;;
18168;SDS011;49877;50.398;30.324;2022-07-09T02:15:54;3.37;;;3.00;;
18168;SDS011;49877;50.398;30.324;2022-07-09T02:18:21;5.33;;;3.00;;
18168;SDS011;49877;50.398;30.324;2022-07-09T02:20:48;10.23;;;3.17;;
18168;SDS011;49877;50.398;30.324;2022-07-09T02:23:15;3.70;;;2.73;;
18168;SDS011;49877;50.398;30.324;2022-07-09T02:25:41;4.97;;;2.70;;
18168;SDS011;49877;50.398;30.324;2022-07-09T02:28:08;3.80;;;2.80;;
18168;SDS011;49877;50.398;30.324;2022-07-09T02:30:37;3.10;;;2.50;;
18168;SDS011;49877;50.398;30.324;2022-07-09T02:33:04;3.60;;;2.70;;
18168;SDS011;49877;50.398;30.324;2022-07-09T02:35:31;2.90;;;2.50;;
18168;SDS011;49877;50.398;30.324;2022-07-09T02:37:58;4.13;;;2.73;;
18168;SDS011;49877;50.398;30.324;2022-07-09T02:40:25;3.50;;;2.50;;
18168;SDS011;49877;50.398;30.324;2022-07-09T02:42:52;6.67;;;2.70;;
18168;SDS011;49877;50.398;30.324;2022-07-09T02:45:19;5.03;;;3.13;;
18168;SDS011;49877;50.398;30.324;2022-07-09T02:47:47;3.17;;;2.70;;
18168;SDS011;49877;50.398;30.324;2022-07-09T02:50:14;3.63;;;2.60;;
18168;SDS011;49877;50.398;30.324;2022-07-09T02:52:41;3.03;;;2.73;;
18168;SDS011;49877;50.398;30.324;2022-07-09T02:55:08;3.43;;;2.77;;
18168;SDS011;49877;50.398;30.324;2022-07-09T02:57:35;2.90;;;2.60;;
18168;SDS011;49877;50.398;30.324;2022-07-09T03:00:03;3.77;;;2.83;;
18168;SDS011;49877;50.398;30.324;2022-07-09T03:02:30;4.83;;;3.00;;
18168;SDS011;49877;50.398;30.324;2022-07-09T03:04:59;3.23;;;2.93;;
18168;SDS011;49877;50.398;30.324;2022-07-09T03:07:26;4.30;;;3.10;;
18168;SDS011;49877;50.398;30.324;2022-07-09T03:09:53;3.10;;;2.80;;
18168;SDS011;49877;50.398;30.324;2022-07-09T03:12:20;3.37;;;3.07;;
18168;SDS011;49877;50.398;30.324;2022-07-09T03:14:46;5.53;;;3.00;;
18168;SDS011;49877;50.398;30.324;2022-07-09T03:17:14;3.90;;;2.90;;
18168;SDS011;49877;50.398;30.324;2022-07-09T03:19:40;3.60;;;2.83;;
18168;SDS011;49877;50.398;30.324;2022-07-09T03:22:09;3.43;;;2.93;;
18168;SDS011;49877;50.398;30.324;2022-07-09T03:24:37;4.13;;;2.93;;
18168;SDS011;49877;50.398;30.324;2022-07-09T03:27:04;4.27;;;2.80;;
18168;SDS011;49877;50.398;30.324;2022-07-09T03:29:32;3.40;;;3.10;;
18168;SDS011;49877;50.398;30.324;2022-07-09T03:31:58;4.20;;;3.00;;
18168;SDS011;49877;50.398;30.324;2022-07-09T03:34:25;4.73;;;2.87;;
18168;SDS011;49877;50.398;30.324;2022-07-09T03:36:52;4.00;;;3.27;;
18168;SDS011;49877;50.398;30.324;2022-07-09T03:39:21;4.10;;;2.90;;
18168;SDS011;49877;50.398;30.324;2022-07-09T03:41:48;4.47;;;3.30;;
18168;SDS011;49877;50.398;30.324;2022-07-09T03:44:14;3.43;;;2.90;;
18168;SDS011;49877;50.398;30.324;2022-07-09T03:46:41;3.10;;;2.80;;
18168;SDS011;49877;50.398;30.324;2022-07-09T03:49:08;5.33;;;3.13;;
18168;SDS011;49877;50.398;30.324;2022-07-09T03:51:36;3.40;;;2.90;;
18168;SDS011;49877;50.398;30.324;2022-07-09T03:54:02;4.97;;;3.20;;
18168;SDS011;49877;50.398;30.324;2022-07-09T03:56:31;4.20;;;3.00;;
18168;SDS011;49877;50.398;30.324;2022-07-09T03:58:58;3.47;;;3.10;;
18168;SDS011;49877;50.398;30.324;2022-07-09T04:01:24;3.70;;;3.27;;
18168;SDS011;49877;50.398;30.324;2022-07-09T04:03:51;4.60;;;3.70;;
18168;SDS011;49877;50.398;30.324;2022-07-09T04:06:18;4.50;;;3.20;;
18168;SDS011;49877;50.398;30.324;2022-07-09T04:08:46;3.50;;;3.20;;
18168;SDS011;49877;50.398;30.324;2022-07-09T04:11:13;5.70;;;3.50;;
18168;SDS011;49877;50.398;30.324;2022-07-09T04:13:41;4.30;;;3.20;;
18168;SDS011;49877;50.398;30.324;2022-07-09T04:16:08;5.60;;;3.10;;
18168;SDS011;49877;50.398;30.324;2022-07-09T04:18:35;8.93;;;3.67;;
18168;SDS011;49877;50.398;30.324;2022-07-09T04:21:02;6.17;;;4.20;;
18168;SDS011;49877;50.398;30.324;2022-07-09T04:23:29;5.97;;;4.20;;
18168;SDS011;49877;50.398;30.324;2022-07-09T04:25:56;8.70;;;3.70;;
18168;SDS011;49877;50.398;30.324;2022-07-09T04:28:23;6.73;;;4.23;;
18168;SDS011;49877;50.398;30.324;2022-07-09T04:30:51;4.47;;;3.63;;
18168;SDS011;49877;50.398;30.324;2022-07-09T04:33:18;5.60;;;3.97;;
18168;SDS011;49877;50.398;30.324;2022-07-09T04:35:45;8.80;;;4.53;;
18168;SDS011;49877;50.398;30.324;2022-07-09T04:38:12;6.10;;;4.70;;
18168;SDS011;49877;50.398;30.324;2022-07-09T04:40:39;7.87;;;4.20;;
18168;SDS011;49877;50.398;30.324;2022-07-09T04:43:06;6.87;;;5.00;;
18168;SDS011;49877;50.398;30.324;2022-07-09T04:45:33;8.57;;;5.50;;
18168;SDS011;49877;50.398;30.324;2022-07-09T04:48:01;7.27;;;4.83;;
18168;SDS011;49877;50.398;30.324;2022-07-09T04:50:28;6.20;;;4.50;;
18168;SDS011;49877;50.398;30.324;2022-07-09T04:52:55;6.67;;;4.40;;
18168;SDS011;49877;50.398;30.324;2022-07-09T04:55:22;5.67;;;4.17;;
18168;SDS011;49877;50.398;30.324;2022-07-09T04:57:49;5.40;;;4.43;;
18168;SDS011;49877;50.398;30.324;2022-07-09T05:00:16;5.83;;;4.13;;
18168;SDS011;49877;50.398;30.324;2022-07-09T05:02:43;5.27;;;4.20;;
18168;SDS011;49877;50.398;30.324;2022-07-09T05:05:12;6.57;;;4.57;;
18168;SDS011;49877;50.398;30.324;2022-07-09T05:07:39;5.63;;;4.00;;
18168;SDS011;49877;50.398;30.324;2022-07-09T05:10:07;7.13;;;4.23;;
18168;SDS011;49877;50.398;30.324;2022-07-09T05:12:34;4.90;;;4.00;;
18168;SDS011;49877;50.398;30.324;2022-07-09T05:15:01;6.83;;;4.03;;
18168;SDS011;49877;50.398;30.324;2022-07-09T05:17:32;5.73;;;4.40;;
18168;SDS011;49877;50.398;30.324;2022-07-09T05:20:00;5.90;;;4.57;;
18168;SDS011;49877;50.398;30.324;2022-07-09T05:22:30;5.80;;;4.53;;
18168;SDS011;49877;50.398;30.324;2022-07-09T05:24:58;8.23;;;4.23;;
18168;SDS011;49877;50.398;30.324;2022-07-09T05:27:25;5.07;;;4.03;;
18168;SDS011;49877;50.398;30.324;2022-07-09T05:29:52;7.20;;;4.33;;
18168;SDS011;49877;50.398;30.324;2022-07-09T05:32:19;6.10;;;3.97;;
18168;SDS011;49877;50.398;30.324;2022-07-09T05:34:46;7.97;;;5.10;;
18168;SDS011;49877;50.398;30.324;2022-07-09T05:37:13;6.17;;;3.80;;
18168;SDS011;49877;50.398;30.324;2022-07-09T05:39:41;6.20;;;4.03;;
18168;SDS011;49877;50.398;30.324;2022-07-09T05:42:09;5.93;;;3.73;;
18168;SDS011;49877;50.398;30.324;2022-07-09T05:44:36;5.07;;;4.17;;
18168;SDS011;49877;50.398;30.324;2022-07-09T05:47:03;5.17;;;3.77;;
18168;SDS011;49877;50.398;30.324;2022-07-09T05:49:30;6.80;;;3.87;;
18168;SDS011;49877;50.398;30.324;2022-07-09T05:51:57;5.30;;;3.97;;
18168;SDS011;49877;50.398;30.324;2022-07-09T05:54:24;6.97;;;3.90;;
18168;SDS011;49877;50.398;30.324;2022-07-09T05:56:52;5.50;;;3.80;;
18168;SDS011;49877;50.398;30.324;2022-07-09T05:59:19;8.83;;;3.77;;
18168;SDS011;49877;50.398;30.324;2022-07-09T06:01:46;4.57;;;3.70;;
18168;SDS011;49877;50.398;30.324;2022-07-09T06:04:13;4.40;;;4.00;;
18168;SDS011;49877;50.398;30.324;2022-07-09T06:06:39;4.43;;;3.53;;
18168;SDS011;49877;50.398;30.324;2022-07-09T06:09:06;5.57;;;3.70;;
18168;SDS011;49877;50.398;30.324;2022-07-09T06:11:33;4.83;;;3.30;;
18168;SDS011;49877;50.398;30.324;2022-07-09T06:14:02;8.10;;;3.60;;
18168;SDS011;49877;50.398;30.324;2022-07-09T06:16:29;5.60;;;3.73;;
18168;SDS011;49877;50.398;30.324;2022-07-09T06:18:56;4.93;;;3.50;;
18168;SDS011;49877;50.398;30.324;2022-07-09T06:21:23;10.47;;;3.93;;
18168;SDS011;49877;50.398;30.324;2022-07-09T06:23:50;5.83;;;3.80;;
18168;SDS011;49877;50.398;30.324;2022-07-09T06:26:16;4.00;;;3.50;;
18168;SDS011;49877;50.398;30.324;2022-07-09T06:28:43;5.10;;;3.30;;
18168;SDS011;49877;50.398;30.324;2022-07-09T06:31:12;4.17;;;3.60;;
18168;SDS011;49877;50.398;30.324;2022-07-09T06:33:39;5.77;;;3.63;;
18168;SDS011;49877;50.398;30.324;2022-07-09T06:36:07;5.17;;;3.43;;
18168;SDS011;49877;50.398;30.324;2022-07-09T06:38:33;6.87;;;3.73;;
18168;SDS011;49877;50.398;30.324;2022-07-09T06:41:21;4.33;;;3.50;;
18168;SDS011;49877;50.398;30.324;2022-07-09T06:43:48;3.87;;;3.37;;
18168;SDS011;49877;50.398;30.324;2022-07-09T06:46:16;4.17;;;3.60;;
18168;SDS011;49877;50.398;30.324;2022-07-09T06:48:43;5.33;;;3.77;;
18168;SDS011;49877;50.398;30.324;2022-07-09T06:51:10;5.83;;;3.97;;
18168;SDS011;49877;50.398;30.324;2022-07-09T06:53:37;5.27;;;3.80;;
18168;SDS011;49877;50.398;30.324;2022-07-09T06:56:04;5.20;;;3.47;;
18168;SDS011;49877;50.398;30.324;2022-07-09T06:58:32;4.00;;;3.53;;
18168;SDS011;49877;50.398;30.324;2022-07-09T07:00:59;5.37;;;3.33;;
18168;SDS011;49877;50.398;30.324;2022-07-09T07:03:27;4.23;;;3.00;;
18168;SDS011;49877;50.398;30.324;2022-07-09T07:05:54;6.20;;;3.83;;
18168;SDS011;49877;50.398;30.324;2022-07-09T07:08:21;5.50;;;3.30;;
18168;SDS011;49877;50.398;30.324;2022-07-09T07:10:48;5.80;;;3.57;;
18168;SDS011;49877;50.398;30.324;2022-07-09T07:13:15;6.57;;;4.00;;
18168;SDS011;49877;50.398;30.324;2022-07-09T07:15:42;4.30;;;3.23;;
18168;SDS011;49877;50.398;30.324;2022-07-09T07:18:14;7.20;;;3.63;;
18168;SDS011;49877;50.398;30.324;2022-07-09T07:20:42;6.93;;;3.57;;
18168;SDS011;49877;50.398;30.324;2022-07-09T07:23:09;5.03;;;3.73;;
18168;SDS011;49877;50.398;30.324;2022-07-09T07:25:36;5.77;;;3.70;;
18168;SDS011;49877;50.398;30.324;2022-07-09T07:28:03;5.20;;;3.90;;
18168;SDS011;49877;50.398;30.324;2022-07-09T07:30:31;4.27;;;3.70;;
18168;SDS011;49877;50.398;30.324;2022-07-09T07:32:59;4.73;;;3.70;;
18168;SDS011;49877;50.398;30.324;2022-07-09T07:35:26;4.47;;;3.63;;
18168;SDS011;49877;50.398;30.324;2022-07-09T07:37:54;4.40;;;3.60;;
18168;SDS011;49877;50.398;30.324;2022-07-09T07:40:21;3.80;;;3.40;;
18168;SDS011;49877;50.398;30.324;2022-07-09T07:42:49;6.33;;;3.77;;
18168;SDS011;49877;50.398;30.324;2022-07-09T07:45:16;8.70;;;4.37;;
18168;SDS011;49877;50.398;30.324;2022-07-09T07:47:43;7.67;;;6.00;;
18168;SDS011;49877;50.398;30.324;2022-07-09T07:50:10;4.27;;;3.87;;
18168;SDS011;49877;50.398;30.324;2022-07-09T07:52:37;5.67;;;3.70;;
18168;SDS011;49877;50.398;30.324;2022-07-09T07:55:06;5.13;;;3.93;;
18168;SDS011;49877;50.398;30.324;2022-07-09T07:57:33;3.97;;;3.47;;
18168;SDS011;49877;50.398;30.324;2022-07-09T08:00:00;4.50;;;3.50;;
18168;SDS011;49877;50.398;30.324;2022-07-09T08:02:27;7.60;;;3.60;;
18168;SDS011;49877;50.398;30.324;2022-07-09T08:04:54;7.70;;;3.87;;
18168;SDS011;49877;50.398;30.324;2022-07-09T08:07:21;4.17;;;3.40;;
18168;SDS011;49877;50.398;30.324;2022-07-09T08:09:48;3.50;;;3.00;;
18168;SDS011;49877;50.398;30.324;2022-07-09T08:12:16;7.27;;;3.27;;
18168;SDS011;49877;50.398;30.324;2022-07-09T08:14:43;3.87;;;3.00;;
18168;SDS011;49877;50.398;30.324;2022-07-09T08:17:10;3.87;;;3.00;;
18168;SDS011;49877;50.398;30.324;2022-07-09T08:19:37;3.90;;;3.20;;
18168;SDS011;49877;50.398;30.324;2022-07-09T08:22:04;8.20;;;5.13;;
18168;SDS011;49877;50.398;30.324;2022-07-09T08:24:31;5.30;;;3.17;;
18168;SDS011;49877;50.398;30.324;2022-07-09T08:26:58;3.33;;;2.93;;
18168;SDS011;49877;50.398;30.324;2022-07-09T08:29:26;4.03;;;3.00;;
18168;SDS011;49877;50.398;30.324;2022-07-09T08:31:53;4.17;;;3.13;;
18168;SDS011;49877;50.398;30.324;2022-07-09T08:34:20;4.90;;;3.40;;
18168;SDS011;49877;50.398;30.324;2022-07-09T08:36:47;5.30;;;2.93;;
18168;SDS011;49877;50.398;30.324;2022-07-09T08:39:14;3.60;;;2.87;;
18168;SDS011;49877;50.398;30.324;2022-07-09T08:41:42;3.63;;;3.20;;
18168;SDS011;49877;50.398;30.324;2022-07-09T08:44:10;4.20;;;3.00;;
18168;SDS011;49877;50.398;30.324;2022-07-09T08:46:39;3.53;;;2.60;;
18168;SDS011;49877;50.398;30.324;2022-07-09T08:49:06;4.30;;;3.07;;
18168;SDS011;49877;50.398;30.324;2022-07-09T08:51:34;3.77;;;3.13;;
18168;SDS011;49877;50.398;30.324;2022-07-09T08:54:01;4.60;;;2.70;;
18168;SDS011;49877;50.398;30.324;2022-07-09T08:56:29;3.20;;;2.80;;
18168;SDS011;49877;50.398;30.324;2022-07-09T08:58:55;3.70;;;3.10;;
18168;SDS011;49877;50.398;30.324;2022-07-09T09:01:22;8.00;;;3.20;;
18168;SDS011;49877;50.398;30.324;2022-07-09T09:03:54;4.27;;;2.70;;
18168;SDS011;49877;50.398;30.324;2022-07-09T09:06:21;3.53;;;3.23;;
18168;SDS011;49877;50.398;30.324;2022-07-09T09:08:52;5.20;;;3.10;;
18168;SDS011;49877;50.398;30.324;2022-07-09T09:11:21;5.80;;;3.57;;
18168;SDS011;49877;50.398;30.324;2022-07-09T09:13:49;3.50;;;2.70;;
18168;SDS011;49877;50.398;30.324;2022-07-09T09:16:17;4.97;;;2.90;;
18168;SDS011;49877;50.398;30.324;2022-07-09T09:18:47;6.67;;;2.97;;
18168;SDS011;49877;50.398;30.324;2022-07-09T09:21:22;4.03;;;3.40;;
18168;SDS011;49877;50.398;30.324;2022-07-09T09:23:51;5.47;;;3.63;;
18168;SDS011;49877;50.398;30.324;2022-07-09T09:26:19;3.60;;;2.93;;
18168;SDS011;49877;50.398;30.324;2022-07-09T09:28:48;3.13;;;2.80;;
18168;SDS011;49877;50.398;30.324;2022-07-09T09:31:23;4.20;;;2.80;;
18168;SDS011;49877;50.398;30.324;2022-07-09T09:33:51;5.10;;;3.20;;
18168;SDS011;49877;50.398;30.324;2022-07-09T09:36:31;4.30;;;3.27;;
18168;SDS011;49877;50.398;30.324;2022-07-09T09:39:12;5.53;;;2.90;;
18168;SDS011;49877;50.398;30.324;2022-07-09T09:41:41;7.90;;;4.70;;
18168;SDS011;49877;50.398;30.324;2022-07-09T09:44:10;4.47;;;3.00;;
18168;SDS011;49877;50.398;30.324;2022-07-09T09:46:39;5.17;;;2.70;;
18168;SDS011;49877;50.398;30.324;2022-07-09T09:49:08;4.83;;;3.10;;
18168;SDS011;49877;50.398;30.324;2022-07-09T09:51:42;4.50;;;3.10;;
18168;SDS011;49877;50.398;30.324;2022-07-09T09:54:14;3.37;;;2.87;;
18168;SDS011;49877;50.398;30.324;2022-07-09T09:56:42;4.37;;;2.80;;
18168;SDS011;49877;50.398;30.324;2022-07-09T09:59:09;6.80;;;2.90;;
18168;SDS011;49877;50.398;30.324;2022-07-09T10:01:37;5.00;;;3.10;;
18168;SDS011;49877;50.398;30.324;2022-07-09T10:04:06;4.53;;;2.90;;
18168;SDS011;49877;50.398;30.324;2022-07-09T10:06:33;6.80;;;3.20;;
18168;SDS011;49877;50.398;30.324;2022-07-09T10:09:02;5.40;;;3.50;;
18168;SDS011;49877;50.398;30.324;2022-07-09T10:11:40;3.87;;;3.00;;
18168;SDS011;49877;50.398;30.324;2022-07-09T10:14:08;4.93;;;3.10;;
18168;SDS011;49877;50.398;30.324;2022-07-09T10:16:42;4.83;;;2.90;;
18168;SDS011;49877;50.398;30.324;2022-07-09T10:19:09;4.63;;;2.90;;
18168;SDS011;49877;50.398;30.324;2022-07-09T10:21:38;3.33;;;2.77;;
18168;SDS011;49877;50.398;30.324;2022-07-09T10:24:07;3.50;;;2.80;;
18168;SDS011;49877;50.398;30.324;2022-07-09T10:26:36;6.23;;;3.73;;
18168;SDS011;49877;50.398;30.324;2022-07-09T10:29:19;5.20;;;3.53;;
18168;SDS011;49877;50.398;30.324;2022-07-09T10:31:47;5.83;;;2.80;;
18168;SDS011;49877;50.398;30.324;2022-07-09T10:34:18;4.30;;;2.90;;
18168;SDS011;49877;50.398;30.324;2022-07-09T10:37:03;5.63;;;2.97;;
18168;SDS011;49877;50.398;30.324;2022-07-09T10:39:32;4.17;;;3.30;;
18168;SDS011;49877;50.398;30.324;2022-07-09T10:42:00;4.93;;;3.20;;
18168;SDS011;49877;50.398;30.324;2022-07-09T10:44:28;4.90;;;2.90;;
18168;SDS011;49877;50.398;30.324;2022-07-09T10:46:59;3.73;;;2.87;;
18168;SDS011;49877;50.398;30.324;2022-07-09T10:49:26;3.10;;;2.77;;
18168;SDS011;49877;50.398;30.324;2022-07-09T10:51:57;4.27;;;3.50;;
18168;SDS011;49877;50.398;30.324;2022-07-09T10:54:24;5.07;;;3.03;;
18168;SDS011;49877;50.398;30.324;2022-07-09T10:56:53;3.93;;;3.17;;
18168;SDS011;49877;50.398;30.324;2022-07-09T10:59:20;5.43;;;3.33;;
18168;SDS011;49877;50.398;30.324;2022-07-09T11:01:48;3.23;;;2.93;;
18168;SDS011;49877;50.398;30.324;2022-07-09T11:04:25;3.90;;;3.20;;
18168;SDS011;49877;50.398;30.324;2022-07-09T11:06:53;5.07;;;3.70;;
18168;SDS011;49877;50.398;30.324;2022-07-09T11:09:21;5.73;;;3.63;;
18168;SDS011;49877;50.398;30.324;2022-07-09T11:11:48;3.63;;;3.07;;
18168;SDS011;49877;50.398;30.324;2022-07-09T11:14:16;7.30;;;3.07;;
18168;SDS011;49877;50.398;30.324;2022-07-09T11:16:52;3.30;;;3.00;;
18168;SDS011;49877;50.398;30.324;2022-07-09T11:19:20;5.20;;;3.60;;
18168;SDS011;49877;50.398;30.324;2022-07-09T11:21:47;5.10;;;3.10;;
18168;SDS011;49877;50.398;30.324;2022-07-09T11:24:15;5.63;;;3.60;;
18168;SDS011;49877;50.398;30.324;2022-07-09T11:26:44;3.67;;;3.33;;
18168;SDS011;49877;50.398;30.324;2022-07-09T11:29:12;5.60;;;3.40;;
18168;SDS011;49877;50.398;30.324;2022-07-09T11:31:47;5.63;;;3.83;;
18168;SDS011;49877;50.398;30.324;2022-07-09T11:34:14;6.53;;;4.03;;
18168;SDS011;49877;50.398;30.324;2022-07-09T11:36:42;5.87;;;3.80;;
18168;SDS011;49877;50.398;30.324;2022-07-09T11:39:20;5.37;;;3.60;;
18168;SDS011;49877;50.398;30.324;2022-07-09T11:41:49;4.73;;;3.60;;
18168;SDS011;49877;50.398;30.324;2022-07-09T11:44:19;5.30;;;3.53;;
18168;SDS011;49877;50.398;30.324;2022-07-09T11:47:01;7.53;;;3.77;;
18168;SDS011;49877;50.398;30.324;2022-07-09T11:49:32;5.93;;;3.90;;
18168;SDS011;49877;50.398;30.324;2022-07-09T11:52:00;6.33;;;4.27;;
18168;SDS011;49877;50.398;30.324;2022-07-09T11:54:27;5.27;;;3.87;;
18168;SDS011;49877;50.398;30.324;2022-07-09T11:56:55;7.27;;;3.33;;
18168;SDS011;49877;50.398;30.324;2022-07-09T11:59:25;4.37;;;3.57;;
18168;SDS011;49877;50.398;30.324;2022-07-09T12:01:52;4.47;;;3.30;;
18168;SDS011;49877;50.398;30.324;2022-07-09T12:04:21;4.90;;;3.67;;
18168;SDS011;49877;50.398;30.324;2022-07-09T12:06:48;7.53;;;3.90;;
18168;SDS011;49877;50.398;30.324;2022-07-09T12:09:26;6.33;;;3.27;;
18168;SDS011;49877;50.398;30.324;2022-07-09T12:11:55;5.17;;;3.47;;
18168;SDS011;49877;50.398;30.324;2022-07-09T12:14:22;4.57;;;3.40;;
18168;SDS011;49877;50.398;30.324;2022-07-09T12:16:49;4.77;;;3.10;;
18168;SDS011;49877;50.398;30.324;2022-07-09T12:19:15;5.77;;;3.37;;
18168;SDS011;49877;50.398;30.324;2022-07-09T12:21:44;6.40;;;4.13;;
18168;SDS011;49877;50.398;30.324;2022-07-09T12:24:11;8.20;;;3.90;;
18168;SDS011;49877;50.398;30.324;2022-07-09T12:26:38;5.10;;;3.57;;
18168;SDS011;49877;50.398;30.324;2022-07-09T12:29:05;5.30;;;3.60;;
18168;SDS011;49877;50.398;30.324;2022-07-09T12:31:31;5.53;;;3.63;;
18168;SDS011;49877;50.398;30.324;2022-07-09T12:34:01;8.50;;;4.50;;
18168;SDS011;49877;50.398;30.324;2022-07-09T12:36:29;6.00;;;3.50;;
18168;SDS011;49877;50.398;30.324;2022-07-09T12:38:57;4.50;;;3.53;;
18168;SDS011;49877;50.398;30.324;2022-07-09T12:41:24;4.87;;;3.33;;
18168;SDS011;49877;50.398;30.324;2022-07-09T12:43:51;4.03;;;3.27;;
18168;SDS011;49877;50.398;30.324;2022-07-09T12:46:18;6.13;;;3.50;;
18168;SDS011;49877;50.398;30.324;2022-07-09T12:48:45;4.30;;;3.43;;
18168;SDS011;49877;50.398;30.324;2022-07-09T12:51:12;4.70;;;3.20;;
18168;SDS011;49877;50.398;30.324;2022-07-09T12:53:39;5.50;;;3.20;;
18168;SDS011;49877;50.398;30.324;2022-07-09T12:56:07;6.57;;;4.53;;
18168;SDS011;49877;50.398;30.324;2022-07-09T12:58:34;4.87;;;3.70;;
18168;SDS011;49877;50.398;30.324;2022-07-09T13:01:01;4.57;;;3.10;;
18168;SDS011;49877;50.398;30.324;2022-07-09T13:03:28;3.93;;;2.97;;
18168;SDS011;49877;50.398;30.324;2022-07-09T13:05:55;3.63;;;3.07;;
18168;SDS011;49877;50.398;30.324;2022-07-09T13:08:22;3.93;;;2.73;;
18168;SDS011;49877;50.398;30.324;2022-07-09T13:10:49;4.13;;;3.30;;
18168;SDS011;49877;50.398;30.324;2022-07-09T13:13:17;4.93;;;3.10;;
18168;SDS011;49877;50.398;30.324;2022-07-09T13:15:44;5.13;;;3.40;;
18168;SDS011;49877;50.398;30.324;2022-07-09T13:18:11;4.33;;;3.00;;
18168;SDS011;49877;50.398;30.324;2022-07-09T13:20:39;3.30;;;2.73;;
18168;SDS011;49877;50.398;30.324;2022-07-09T13:23:06;3.20;;;2.90;;
18168;SDS011;49877;50.398;30.324;2022-07-09T13:25:33;4.60;;;3.00;;
18168;SDS011;49877;50.398;30.324;2022-07-09T13:28:00;5.03;;;3.20;;
18168;SDS011;49877;50.398;30.324;2022-07-09T13:30:28;4.10;;;3.60;;
18168;SDS011;49877;50.398;30.324;2022-07-09T13:32:55;4.03;;;3.17;;
18168;SDS011;49877;50.398;30.324;2022-07-09T13:35:22;3.23;;;2.80;;
18168;SDS011;49877;50.398;30.324;2022-07-09T13:37:50;3.80;;;2.80;;
18168;SDS011;49877;50.398;30.324;2022-07-09T13:40:17;8.13;;;3.77;;
18168;SDS011;49877;50.398;30.324;2022-07-09T13:42:44;6.40;;;3.10;;
18168;SDS011;49877;50.398;30.324;2022-07-09T13:45:11;5.13;;;3.20;;
18168;SDS011;49877;50.398;30.324;2022-07-09T13:47:40;3.47;;;2.60;;
18168;SDS011;49877;50.398;30.324;2022-07-09T13:50:07;3.30;;;3.00;;
18168;SDS011;49877;50.398;30.324;2022-07-09T13:52:34;4.17;;;3.17;;
18168;SDS011;49877;50.398;30.324;2022-07-09T13:55:01;4.07;;;3.10;;
18168;SDS011;49877;50.398;30.324;2022-07-09T13:57:28;5.73;;;3.20;;
18168;SDS011;49877;50.398;30.324;2022-07-09T13:59:55;6.30;;;3.50;;
18168;SDS011;49877;50.398;30.324;2022-07-09T14:02:22;3.40;;;3.10;;
18168;SDS011;49877;50.398;30.324;2022-07-09T14:04:51;5.83;;;3.37;;
18168;SDS011;49877;50.398;30.324;2022-07-09T14:07:19;4.67;;;3.00;;
18168;SDS011;49877;50.398;30.324;2022-07-09T14:09:47;3.77;;;3.40;;
18168;SDS011;49877;50.398;30.324;2022-07-09T14:12:13;5.30;;;3.30;;
18168;SDS011;49877;50.398;30.324;2022-07-09T14:14:41;4.13;;;3.60;;
18168;SDS011;49877;50.398;30.324;2022-07-09T14:17:08;4.87;;;3.37;;
18168;SDS011;49877;50.398;30.324;2022-07-09T14:19:36;5.73;;;3.43;;
18168;SDS011;49877;50.398;30.324;2022-07-09T14:22:04;6.73;;;4.30;;
18168;SDS011;49877;50.398;30.324;2022-07-09T14:24:31;5.67;;;4.00;;
18168;SDS011;49877;50.398;30.324;2022-07-09T14:26:58;5.60;;;4.00;;
18168;SDS011;49877;50.398;30.324;2022-07-09T14:29:26;4.67;;;4.00;;
18168;SDS011;49877;50.398;30.324;2022-07-09T14:31:53;5.50;;;3.90;;
18168;SDS011;49877;50.398;30.324;2022-07-09T14:34:20;6.63;;;3.73;;
18168;SDS011;49877;50.398;30.324;2022-07-09T14:36:48;7.87;;;5.50;;